Time;durP1;ratioP1;P1;durP2;ratioP2;P2;SDS_P1;SDS_P2;PMS_P1;PMS_P2;Temp;Humidity;BMP_temperature;BMP_pressure;BME280_temperature;BME280_humidity;BME280_pressure;Samples;Min_cycle;Max_cycle;Signal;HPM_P1;HPM_P2
2022/10/17 00:01:39;;;;;;;10.23;8.25;;;15.60;99.90;;;;;;5074057;28;20017;-69
2022/10/17 00:04:05;;;;;;;10.63;8.43;;;15.60;99.90;;;;;;5073265;28;20120;-70
2022/10/17 00:06:33;;;;;;;12.50;7.75;;;15.70;99.90;;;;;;5085608;28;20496;-69
2022/10/17 00:08:58;;;;;;;9.68;7.22;;;15.70;99.90;;;;;;5076180;28;20024;-69
2022/10/17 00:11:25;;;;;;;10.02;7.70;;;15.70;99.90;;;;;;5074487;28;20049;-69
2022/10/17 00:13:53;;;;;;;10.35;8.75;;;15.70;99.90;;;;;;5074486;28;20025;-69
2022/10/17 00:16:28;;;;;;;12.57;8.45;;;15.70;99.90;;;;;;5074597;28;20468;-70
2022/10/17 00:18:54;;;;;;;;;;;15.70;99.90;;;;;;5077410;28;20043;-69
2022/10/17 00:21:20;;;;;;;9.18;7.35;;;15.70;99.90;;;;;;5073895;28;20527;-69
2022/10/17 00:23:46;;;;;;;10.50;8.10;;;15.70;99.90;;;;;;5085393;28;20142;-69
2022/10/17 00:26:12;;;;;;;9.50;7.88;;;15.70;99.90;;;;;;5079467;28;20032;-69
2022/10/17 00:28:37;;;;;;;11.85;8.35;;;15.70;99.90;;;;;;5078036;28;20023;-69
2022/10/17 00:31:04;;;;;;;11.25;8.20;;;15.70;99.90;;;;;;5073978;28;20531;-69
2022/10/17 00:33:31;;;;;;;11.13;8.00;;;15.80;99.90;;;;;;5082021;28;20054;-69
2022/10/17 00:36:18;;;;;;;9.98;7.60;;;15.70;99.90;;;;;;5074308;28;20416;-69
2022/10/17 00:38:46;;;;;;;10.02;7.88;;;15.70;99.90;;;;;;5084720;28;20032;-69
2022/10/17 00:41:15;;;;;;;9.13;7.07;;;15.70;99.90;;;;;;5077921;28;20525;-69
2022/10/17 00:43:57;;;;;;;10.13;7.15;;;15.70;99.90;;;;;;5083662;28;20056;-69
2022/10/17 00:46:26;;;;;;;8.50;7.35;;;15.70;99.90;;;;;;5073022;28;20368;-69
2022/10/17 00:48:54;;;;;;;11.65;7.50;;;15.70;99.90;;;;;;5084450;28;20093;-68
2022/10/17 00:51:26;;;;;;;8.55;6.90;;;15.70;99.90;;;;;;5079525;28;20047;-69
2022/10/17 00:53:53;;;;;;;9.55;6.80;;;15.70;99.90;;;;;;5084201;28;20502;-69
2022/10/17 00:56:20;;;;;;;9.57;7.32;;;15.70;99.90;;;;;;5081095;28;20033;-69
2022/10/17 00:58:46;;;;;;;8.80;7.53;;;15.70;99.90;;;;;;5082878;28;20036;-69
2022/10/17 01:01:12;;;;;;;9.00;7.20;;;15.70;99.90;;;;;;5072276;28;20017;-69
2022/10/17 01:03:38;;;;;;;8.05;7.05;;;15.70;99.90;;;;;;5080271;28;20032;-68
2022/10/17 01:06:03;;;;;;;8.43;7.07;;;15.60;99.90;;;;;;5082350;28;20031;-69
2022/10/17 01:08:29;;;;;;;8.25;6.85;;;15.70;99.90;;;;;;5077625;28;20024;-69
2022/10/17 01:11:04;;;;;;;7.00;6.22;;;15.60;99.90;;;;;;5083515;28;20123;-69
2022/10/17 01:13:41;;;;;;;9.90;7.20;;;15.70;99.90;;;;;;5056377;28;20064;-69
2022/10/17 01:16:33;;;;;;;8.25;6.13;;;15.70;99.90;;;;;;5062842;28;20033;-69
2022/10/17 01:19:32;;;;;;;8.20;6.57;;;15.70;99.90;;;;;;5083467;28;20078;-69
2022/10/17 01:22:06;;;;;;;10.77;6.28;;;15.70;99.90;;;;;;5074892;28;20032;-69
2022/10/17 01:25:00;;;;;;;8.45;6.82;;;15.70;99.90;;;;;;5075675;28;20033;-68
2022/10/17 01:27:51;;;;;;;7.57;6.07;;;15.70;99.90;;;;;;5078619;28;20058;-68
2022/10/17 01:30:47;;;;;;;6.60;5.78;;;15.60;99.90;;;;;;5059980;28;20479;-69
2022/10/17 01:33:31;;;;;;;7.68;5.43;;;15.70;99.90;;;;;;5071400;28;20044;-69
2022/10/17 01:36:09;;;;;;;5.88;5.28;;;15.60;99.90;;;;;;5071730;28;20039;-69
2022/10/17 01:38:59;;;;;;;7.45;5.68;;;15.60;99.90;;;;;;5071384;28;20048;-67
2022/10/17 01:41:43;;;;;;;9.57;5.70;;;15.60;99.90;;;;;;5071373;28;20063;-69
2022/10/17 01:44:17;;;;;;;6.53;5.20;;;15.50;99.90;;;;;;5072291;28;20032;-68
2022/10/17 01:46:49;;;;;;;7.70;5.60;;;15.60;99.90;;;;;;5069719;28;20031;-69
2022/10/17 01:49:19;;;;;;;6.57;5.80;;;15.60;99.90;;;;;;5084240;28;20034;-69
2022/10/17 01:51:56;;;;;;;6.40;5.57;;;15.60;99.90;;;;;;5066150;28;20131;-67
2022/10/17 01:54:36;;;;;;;8.13;5.32;;;15.50;99.90;;;;;;5065155;28;20037;-69
2022/10/17 01:57:06;;;;;;;7.15;5.57;;;15.50;99.90;;;;;;5069270;28;20475;-69
2022/10/17 01:59:44;;;;;;;7.13;5.25;;;15.50;99.90;;;;;;5066355;28;20028;-68
2022/10/17 02:02:12;;;;;;;7.68;5.18;;;15.50;99.90;;;;;;5062749;28;20036;-68
2022/10/17 02:04:40;;;;;;;7.13;5.78;;;15.40;99.90;;;;;;5081231;28;20051;-68
2022/10/17 02:07:10;;;;;;;8.20;4.97;;;15.40;99.90;;;;;;5071355;28;20054;-69
2022/10/17 02:09:36;;;;;;;5.97;4.88;;;15.40;99.90;;;;;;5075711;28;20111;-68
2022/10/17 02:12:18;;;;;;;6.75;5.07;;;15.40;99.90;;;;;;5078548;28;20124;-68
2022/10/17 02:15:09;;;;;;;6.13;4.85;;;15.40;99.90;;;;;;5076902;28;20036;-68
2022/10/17 02:18:02;;;;;;;7.03;4.47;;;15.40;99.90;;;;;;5071108;28;20514;-68
2022/10/17 02:20:36;;;;;;;5.82;5.10;;;15.30;99.90;;;;;;5075682;28;20056;-69
2022/10/17 02:23:07;;;;;;;5.45;4.80;;;15.30;99.90;;;;;;5071517;28;20675;-69
2022/10/17 02:25:47;;;;;;;6.97;5.07;;;15.30;99.90;;;;;;5074734;28;20070;-68
2022/10/17 02:28:28;;;;;;;8.07;4.90;;;15.30;99.90;;;;;;5070930;28;20392;-68
2022/10/17 02:31:01;;;;;;;6.75;4.53;;;15.30;99.90;;;;;;5072391;28;20074;-68
2022/10/17 02:33:32;;;;;;;5.78;5.18;;;15.30;99.90;;;;;;5071339;28;20053;-67
2022/10/17 02:36:04;;;;;;;6.20;5.00;;;15.20;99.90;;;;;;5076064;28;20024;-68
2022/10/17 02:38:31;;;;;;;5.93;4.88;;;15.20;99.90;;;;;;5071201;28;20041;-68
2022/10/17 02:40:59;;;;;;;7.53;5.05;;;15.20;99.90;;;;;;5071622;28;20054;-67
2022/10/17 02:43:25;;;;;;;5.55;4.53;;;15.20;99.90;;;;;;5077994;28;20035;-68
2022/10/17 02:45:51;;;;;;;7.57;5.72;;;15.20;99.90;;;;;;5075169;28;20029;-68
2022/10/17 02:48:34;;;;;;;6.25;5.50;;;15.20;99.90;;;;;;5071033;28;20032;-68
2022/10/17 02:51:26;;;;;;;6.40;5.03;;;15.20;99.90;;;;;;5074717;28;20021;-68
2022/10/17 02:53:57;;;;;;;5.40;4.90;;;15.20;99.90;;;;;;5070983;28;20033;-68
2022/10/17 02:56:27;;;;;;;6.25;5.00;;;15.20;99.90;;;;;;5072250;28;20025;-68
2022/10/17 02:58:57;;;;;;;7.68;4.82;;;15.20;99.90;;;;;;5070623;28;20479;-68
2022/10/17 03:01:24;;;;;;;7.53;5.43;;;15.20;99.90;;;;;;5070729;28;20169;-67
2022/10/17 03:03:49;;;;;;;7.15;5.00;;;15.20;99.90;;;;;;5073812;28;20115;-67
2022/10/17 03:06:16;;;;;;;6.18;4.50;;;15.20;99.90;;;;;;5074657;28;20531;-68
2022/10/17 03:08:41;;;;;;;5.50;4.78;;;15.20;99.90;;;;;;5091477;28;20025;-68
2022/10/17 03:11:07;;;;;;;6.60;5.00;;;15.10;99.90;;;;;;5070024;28;20048;-68
2022/10/17 03:13:32;;;;;;;6.95;4.88;;;15.20;99.90;;;;;;5071146;28;20112;-68
2022/10/17 03:15:58;;;;;;;7.45;4.68;;;15.10;99.90;;;;;;5069899;28;20235;-68
2022/10/17 03:18:25;;;;;;;5.05;4.38;;;15.10;99.90;;;;;;5081597;28;20562;-68
2022/10/17 03:20:50;;;;;;;6.75;4.70;;;15.10;99.90;;;;;;5074022;28;20025;-68
2022/10/17 03:23:16;;;;;;;6.53;4.93;;;15.10;99.90;;;;;;5070799;28;20043;-68
2022/10/17 03:25:41;;;;;;;6.13;4.38;;;15.10;99.90;;;;;;5071653;28;20036;-68
2022/10/17 03:28:09;;;;;;;5.57;4.78;;;15.10;99.90;;;;;;5074354;28;20040;-67
2022/10/17 03:30:37;;;;;;;6.05;5.13;;;15.10;99.90;;;;;;5074728;28;20071;-67
2022/10/17 03:33:03;;;;;;;6.15;5.22;;;15.10;99.90;;;;;;5073760;28;20556;-68
2022/10/17 03:35:29;;;;;;;5.63;5.03;;;15.20;99.90;;;;;;5080787;28;20028;-68
2022/10/17 03:37:55;;;;;;;5.57;4.80;;;15.20;99.90;;;;;;5074651;28;20050;-67
2022/10/17 03:40:20;;;;;;;8.05;5.03;;;15.10;99.90;;;;;;5074502;28;20479;-68
2022/10/17 03:42:46;;;;;;;5.68;5.00;;;15.10;99.90;;;;;;5074811;28;20067;-69
2022/10/17 03:45:12;;;;;;;5.68;4.80;;;15.20;99.90;;;;;;5073508;28;20036;-68
2022/10/17 03:47:38;;;;;;;7.18;5.32;;;15.20;99.90;;;;;;5074533;28;20024;-68
2022/10/17 03:50:06;;;;;;;5.65;4.40;;;15.20;99.90;;;;;;5073527;28;20024;-68
2022/10/17 03:52:31;;;;;;;6.70;5.25;;;15.20;99.90;;;;;;5074369;28;20033;-68
2022/10/17 03:54:57;;;;;;;6.65;5.35;;;15.20;99.90;;;;;;5073607;28;20636;-68
2022/10/17 03:57:22;;;;;;;6.22;5.05;;;15.20;99.90;;;;;;5069415;28;20037;-68
2022/10/17 03:59:51;;;;;;;8.65;5.57;;;15.20;99.90;;;;;;5073364;28;20024;-68
2022/10/17 04:02:17;;;;;;;5.93;5.07;;;15.20;99.90;;;;;;5076317;28;20036;-68
2022/10/17 04:04:43;;;;;;;5.88;5.22;;;15.20;99.90;;;;;;5072191;28;20032;-69
2022/10/17 04:07:08;;;;;;;7.90;5.15;;;15.20;99.90;;;;;;5073176;28;20586;-68
2022/10/17 04:09:34;;;;;;;8.95;5.70;;;15.20;99.90;;;;;;5074397;28;20032;-68
2022/10/17 04:11:59;;;;;;;5.95;4.50;;;15.20;99.90;;;;;;5080158;28;20028;-68
2022/10/17 04:14:25;;;;;;;5.15;4.65;;;15.20;99.90;;;;;;5073395;28;20392;-69
2022/10/17 04:16:52;;;;;;;6.60;5.20;;;15.20;99.90;;;;;;5076529;28;20502;-68
2022/10/17 04:19:17;;;;;;;5.13;4.63;;;15.20;99.90;;;;;;5073993;28;20547;-68
2022/10/17 04:21:43;;;;;;;7.00;5.45;;;15.20;99.90;;;;;;5080860;28;20153;-67
2022/10/17 04:24:10;;;;;;;7.22;4.72;;;15.20;99.90;;;;;;5073700;28;20069;-68
2022/10/17 04:26:36;;;;;;;5.97;5.38;;;15.20;99.90;;;;;;5079259;28;20051;-68
2022/10/17 04:29:02;;;;;;;6.82;5.20;;;15.20;99.90;;;;;;5072571;28;20032;-68
2022/10/17 04:31:27;;;;;;;6.10;5.45;;;15.20;99.90;;;;;;5080139;28;20067;-67
2022/10/17 04:33:55;;;;;;;5.03;4.53;;;15.10;99.90;;;;;;5072903;28;20103;-67
2022/10/17 04:36:22;;;;;;;7.10;5.38;;;15.10;99.90;;;;;;5080705;28;20043;-68
2022/10/17 04:38:47;;;;;;;8.40;5.03;;;15.10;99.90;;;;;;5072390;28;20089;-68
2022/10/17 04:41:15;;;;;;;5.45;4.82;;;15.10;99.90;;;;;;5078206;28;20029;-68
2022/10/17 04:43:42;;;;;;;6.15;5.35;;;15.10;99.90;;;;;;5079139;28;20036;-68
2022/10/17 04:46:12;;;;;;;5.47;4.90;;;15.10;99.90;;;;;;5072786;28;20029;-67
2022/10/17 04:48:39;;;;;;;5.97;5.32;;;15.10;99.90;;;;;;5072469;28;20060;-65
2022/10/17 04:51:17;;;;;;;6.03;5.38;;;15.10;99.90;;;;;;5085620;28;20046;-67
2022/10/17 04:53:43;;;;;;;8.13;5.55;;;15.10;99.90;;;;;;5076163;28;20086;-68
2022/10/17 04:56:10;;;;;;;6.63;4.97;;;15.00;99.90;;;;;;5083529;28;20020;-67
2022/10/17 04:58:37;;;;;;;9.43;5.22;;;15.10;99.90;;;;;;5074985;28;20028;-67
2022/10/17 05:01:12;;;;;;;6.20;5.60;;;15.00;99.90;;;;;;5072333;28;20020;-68
2022/10/17 05:03:38;;;;;;;6.53;4.90;;;15.00;99.90;;;;;;5069573;28;20036;-67
2022/10/17 05:06:12;;;;;;;7.75;5.07;;;15.00;99.90;;;;;;5072313;28;20442;-69
2022/10/17 05:08:39;;;;;;;5.75;5.00;;;15.00;99.90;;;;;;5071634;28;20025;-69
2022/10/17 05:11:13;;;;;;;6.00;5.30;;;15.00;99.90;;;;;;5072536;28;20032;-69
2022/10/17 05:13:39;;;;;;;5.65;4.90;;;15.00;99.90;;;;;;5072766;28;20051;-68
2022/10/17 05:16:05;;;;;;;5.78;5.13;;;15.00;99.90;;;;;;5073599;28;20546;-67
2022/10/17 05:18:30;;;;;;;6.28;4.82;;;15.00;99.90;;;;;;5072204;28;20063;-69
2022/10/17 05:20:56;;;;;;;6.70;5.82;;;15.00;99.90;;;;;;5073930;28;20032;-69
2022/10/17 05:23:23;;;;;;;6.50;5.05;;;14.90;99.90;;;;;;5072313;28;20078;-69
2022/10/17 05:25:53;;;;;;;6.03;5.25;;;15.00;99.90;;;;;;5077212;28;20105;-68
2022/10/17 05:28:19;;;;;;;6.55;5.57;;;15.00;99.90;;;;;;5071366;28;20035;-67
2022/10/17 05:30:44;;;;;;;5.47;4.72;;;15.00;99.90;;;;;;5072030;28;20367;-68
2022/10/17 05:33:10;;;;;;;11.85;5.45;;;14.90;99.90;;;;;;5070886;28;20533;-68
2022/10/17 05:35:35;;;;;;;10.23;4.97;;;14.90;99.90;;;;;;5070881;28;20027;-67
2022/10/17 05:38:01;;;;;;;5.78;5.05;;;14.90;99.90;;;;;;5067463;28;20036;-68
2022/10/17 05:40:27;;;;;;;6.88;5.80;;;14.90;99.90;;;;;;5077145;28;20028;-68
2022/10/17 05:42:52;;;;;;;9.15;6.18;;;14.90;99.90;;;;;;5082091;28;20024;-67
2022/10/17 05:45:18;;;;;;;6.22;5.60;;;14.90;99.90;;;;;;5067399;28;20016;-69
2022/10/17 05:47:44;;;;;;;6.28;5.32;;;14.90;99.90;;;;;;5062106;28;20027;-69
2022/10/17 05:50:11;;;;;;;7.65;5.90;;;14.90;99.90;;;;;;5072810;28;20039;-70
2022/10/17 05:52:37;;;;;;;7.43;5.97;;;14.90;99.90;;;;;;5073029;28;20377;-70
2022/10/17 05:55:04;;;;;;;6.80;6.00;;;14.90;99.90;;;;;;5073251;28;20502;-71
2022/10/17 05:57:30;;;;;;;7.35;6.45;;;14.90;99.90;;;;;;5072265;28;20054;-69
2022/10/17 05:59:57;;;;;;;7.78;6.15;;;14.90;99.90;;;;;;5069526;28;20032;-69
2022/10/17 06:02:22;;;;;;;7.55;6.32;;;15.00;99.90;;;;;;5071645;28;20016;-69
2022/10/17 06:04:49;;;;;;;6.47;5.72;;;15.00;99.90;;;;;;5064552;28;20119;-69
2022/10/17 06:07:15;;;;;;;7.47;6.03;;;15.00;99.90;;;;;;5062516;28;20745;-69
2022/10/17 06:09:41;;;;;;;7.70;6.05;;;15.10;99.90;;;;;;5064245;28;20047;-69
2022/10/17 06:12:07;;;;;;;10.27;6.50;;;15.10;99.90;;;;;;5074618;28;20472;-67
2022/10/17 06:14:33;;;;;;;6.78;6.07;;;15.10;99.90;;;;;;5079866;28;20374;-68
2022/10/17 06:16:58;;;;;;;8.45;6.00;;;15.10;99.90;;;;;;5087807;28;20114;-68
2022/10/17 06:19:24;;;;;;;8.23;6.53;;;15.10;99.90;;;;;;5085036;28;20028;-69
2022/10/17 06:21:50;;;;;;;8.60;6.53;;;15.20;99.90;;;;;;5084344;28;20039;-69
2022/10/17 06:24:16;;;;;;;10.05;6.35;;;15.20;99.90;;;;;;5073539;28;20017;-70
2022/10/17 06:26:42;;;;;;;6.72;5.95;;;15.20;99.90;;;;;;5082186;28;20088;-69
2022/10/17 06:29:07;;;;;;;9.30;5.95;;;15.20;99.90;;;;;;5071256;28;20476;-69
2022/10/17 06:31:33;;;;;;;8.38;5.45;;;15.20;99.90;;;;;;5082646;28;20028;-69
2022/10/17 06:33:59;;;;;;;15.02;6.35;;;15.30;99.90;;;;;;5072890;28;20078;-70
2022/10/17 06:36:24;;;;;;;7.00;5.25;;;15.30;99.90;;;;;;5065698;28;20028;-68
2022/10/17 06:38:51;;;;;;;7.32;5.80;;;15.30;99.90;;;;;;5067285;28;20055;-69
2022/10/17 06:41:18;;;;;;;6.78;5.70;;;15.40;99.90;;;;;;5070581;28;20020;-69
2022/10/17 06:43:45;;;;;;;6.82;6.05;;;15.40;99.90;;;;;;5069788;28;20040;-69
2022/10/17 06:46:12;;;;;;;10.77;5.35;;;15.40;99.90;;;;;;5079138;28;20028;-69
2022/10/17 06:48:38;;;;;;;6.93;5.35;;;15.50;99.90;;;;;;5073412;28;20040;-68
2022/10/17 06:51:06;;;;;;;7.38;6.07;;;15.50;99.90;;;;;;5077733;28;20111;-70
2022/10/17 06:53:33;;;;;;;6.35;5.13;;;15.60;99.90;;;;;;5075339;28;20249;-69
2022/10/17 06:56:03;;;;;;;9.07;5.95;;;15.60;99.90;;;;;;5071264;28;20031;-70
2022/10/17 06:58:30;;;;;;;6.18;5.30;;;15.70;99.90;;;;;;5080116;28;20048;-70
2022/10/17 07:01:02;;;;;;;7.70;5.55;;;15.70;99.90;;;;;;5076282;28;20090;-69
2022/10/17 07:03:28;;;;;;;8.18;5.50;;;15.80;99.90;;;;;;5090756;28;20511;-69
2022/10/17 07:05:55;;;;;;;7.40;6.10;;;15.80;99.90;;;;;;5094011;28;20031;-69
2022/10/17 07:08:21;;;;;;;6.85;5.68;;;15.80;99.90;;;;;;5093865;28;20024;-68
2022/10/17 07:10:47;;;;;;;10.57;6.45;;;15.90;99.90;;;;;;5092602;28;20045;-68
2022/10/17 07:13:13;;;;;;;8.50;5.90;;;15.90;99.90;;;;;;5074130;28;20071;-68
2022/10/17 07:15:39;;;;;;;8.48;5.80;;;16.00;99.90;;;;;;5077031;28;20072;-70
2022/10/17 07:18:05;;;;;;;8.45;6.15;;;16.10;99.90;;;;;;5093933;28;20161;-69
2022/10/17 07:20:30;;;;;;;7.68;5.97;;;16.10;99.90;;;;;;5082632;28;20024;-68
2022/10/17 07:22:56;;;;;;;8.07;6.05;;;16.20;99.90;;;;;;5093016;28;20054;-68
2022/10/17 07:25:23;;;;;;;9.05;5.63;;;16.20;99.90;;;;;;5092825;28;20027;-68
2022/10/17 07:27:50;;;;;;;6.80;5.68;;;16.20;99.90;;;;;;5089957;28;20113;-71
2022/10/17 07:30:15;;;;;;;7.38;5.47;;;16.30;99.90;;;;;;5093087;28;20039;-68
2022/10/17 07:32:42;;;;;;;8.65;5.30;;;16.40;99.90;;;;;;5085681;28;20044;-68
2022/10/17 07:35:09;;;;;;;6.78;5.32;;;16.40;99.90;;;;;;5092985;28;20027;-69
2022/10/17 07:37:35;;;;;;;12.50;5.95;;;16.40;99.90;;;;;;5075169;28;20120;-68
2022/10/17 07:40:01;;;;;;;8.15;5.35;;;16.50;99.90;;;;;;5074342;28;20422;-69
2022/10/17 07:42:27;;;;;;;6.32;4.90;;;16.50;99.90;;;;;;5088351;28;20089;-68
2022/10/17 07:44:53;;;;;;;7.60;5.18;;;16.60;99.90;;;;;;5086590;28;20368;-69
2022/10/17 07:47:19;;;;;;;5.63;4.65;;;16.60;99.90;;;;;;5077276;28;20026;-69
2022/10/17 07:49:45;;;;;;;7.43;4.95;;;16.60;99.90;;;;;;5071447;28;20023;-71
2022/10/17 07:52:12;;;;;;;8.80;4.80;;;16.70;99.90;;;;;;5083488;28;20103;-69
2022/10/17 07:54:38;;;;;;;10.60;4.88;;;16.70;99.90;;;;;;5073811;28;20093;-68
2022/10/17 07:57:05;;;;;;;8.65;5.68;;;16.80;99.90;;;;;;5087203;28;20410;-69
2022/10/17 07:59:32;;;;;;;9.23;5.03;;;16.80;99.90;;;;;;5071395;28;20053;-69
2022/10/17 08:01:58;;;;;;;7.60;5.03;;;16.90;99.90;;;;;;5066401;28;20029;-70
2022/10/17 08:04:24;;;;;;;8.00;4.53;;;16.90;99.90;;;;;;5073821;28;20386;-70
2022/10/17 08:06:50;;;;;;;8.52;4.82;;;17.00;99.90;;;;;;5081244;28;20114;-68
2022/10/17 08:09:15;;;;;;;8.52;4.85;;;17.00;99.90;;;;;;5068714;28;20033;-67
2022/10/17 08:11:42;;;;;;;7.15;4.53;;;17.00;99.90;;;;;;5080793;28;20631;-69
2022/10/17 08:14:09;;;;;;;8.27;4.63;;;17.10;99.90;;;;;;5072778;28;20028;-71
2022/10/17 08:16:35;;;;;;;7.72;4.97;;;17.10;99.90;;;;;;5080407;28;20125;-71
2022/10/17 08:19:00;;;;;;;14.57;4.72;;;17.20;99.90;;;;;;5073935;28;20440;-71
2022/10/17 08:21:26;;;;;;;9.10;5.03;;;17.20;99.90;;;;;;5073097;28;20032;-71
2022/10/17 08:23:52;;;;;;;6.78;4.50;;;17.30;99.90;;;;;;5072684;28;20066;-71
2022/10/17 08:26:19;;;;;;;8.23;5.10;;;17.30;99.90;;;;;;5074542;28;20051;-70
2022/10/17 08:28:46;;;;;;;7.07;5.13;;;17.40;99.90;;;;;;5072136;28;20028;-71
2022/10/17 08:31:14;;;;;;;6.57;4.43;;;17.50;99.90;;;;;;5072859;28;20043;-71
2022/10/17 08:33:41;;;;;;;7.80;4.50;;;17.50;99.90;;;;;;5073384;28;20053;-71
2022/10/17 08:36:08;;;;;;;5.65;4.63;;;17.60;99.90;;;;;;5071130;28;20029;-70
2022/10/17 08:38:35;;;;;;;6.97;4.78;;;17.60;99.90;;;;;;5075189;28;20036;-70
2022/10/17 08:41:05;;;;;;;5.22;3.97;;;17.70;99.90;;;;;;5078561;28;20459;-70
2022/10/17 08:43:50;;;;;;;5.53;3.92;;;17.80;99.90;;;;;;5083835;28;20028;-71
2022/10/17 08:46:18;;;;;;;7.15;3.67;;;17.90;99.90;;;;;;5077735;28;20024;-72
2022/10/17 08:48:48;;;;;;;5.43;3.88;;;17.90;99.90;;;;;;5093884;28;20024;-72
2022/10/17 08:51:20;;;;;;;6.55;4.28;;;18.00;99.90;;;;;;5091447;28;20017;-71
2022/10/17 08:54:05;;;;;;;6.05;4.93;;;18.00;99.90;;;;;;5092138;28;20031;-72
2022/10/17 08:56:49;;;;;;;7.22;4.05;;;18.10;99.90;;;;;;5077794;28;20028;-71
2022/10/17 08:59:25;;;;;;;3.83;3.37;;;18.10;99.90;;;;;;5055506;28;20041;-71
2022/10/17 09:02:29;;;;;;;8.63;3.75;;;18.20;99.90;;;;;;5073474;28;20024;-71
2022/10/17 09:05:39;;;;;;;4.50;3.70;;;18.30;99.90;;;;;;5073392;28;20028;-72
2022/10/17 09:08:10;;;;;;;6.28;3.70;;;18.30;99.90;;;;;;5030678;28;20026;-73
2022/10/17 09:10:56;;;;;;;6.63;3.83;;;18.40;99.90;;;;;;5068747;28;20115;-72
2022/10/17 09:13:33;;;;;;;5.53;3.42;;;18.50;99.90;;;;;;5072813;28;20066;-73
2022/10/17 09:16:29;;;;;;;10.40;4.25;;;18.60;99.90;;;;;;5073028;28;20024;-73
2022/10/17 09:19:06;;;;;;;8.73;4.05;;;18.70;99.90;;;;;;5071772;28;20040;-73
2022/10/17 09:22:01;;;;;;;10.90;3.83;;;18.70;99.90;;;;;;5072793;28;20012;-73
2022/10/17 09:24:27;;;;;;;;;;;18.80;99.90;;;;;;5062932;28;20041;-72
2022/10/17 09:26:54;;;;;;;16.58;4.68;;;18.90;99.90;;;;;;5072903;28;19904;-72
2022/10/17 09:29:25;;;;;;;15.50;4.88;;;18.90;99.90;;;;;;5071531;28;20024;-72
2022/10/17 09:32:02;;;;;;;9.18;4.40;;;19.00;99.90;;;;;;5072895;28;20017;-72
2022/10/17 09:34:30;;;;;;;7.85;4.50;;;19.10;99.90;;;;;;5072673;28;20036;-73
2022/10/17 09:36:59;;;;;;;7.38;4.30;;;19.20;99.90;;;;;;5072755;28;20033;-72
2022/10/17 09:39:28;;;;;;;12.13;5.28;;;19.30;99.90;;;;;;5072288;28;20051;-71
2022/10/17 09:41:56;;;;;;;5.50;3.80;;;19.40;99.90;;;;;;5074966;28;20013;-72
2022/10/17 09:44:28;;;;;;;5.53;4.10;;;19.40;99.90;;;;;;5072293;28;20561;-73
2022/10/17 09:47:14;;;;;;;5.45;3.83;;;19.50;99.90;;;;;;5072436;28;20383;-72
2022/10/17 09:49:45;;;;;;;8.18;3.92;;;19.60;99.90;;;;;;5052808;28;20037;-72
2022/10/17 09:52:39;;;;;;;7.90;3.58;;;19.70;99.90;;;;;;5052582;28;20683;-71
2022/10/17 09:55:37;;;;;;;4.37;3.10;;;19.80;99.90;;;;;;5062022;28;20041;-71
2022/10/17 09:58:06;;;;;;;5.20;3.38;;;19.90;99.90;;;;;;5073192;28;20024;-74
2022/10/17 10:00:39;;;;;;;6.50;3.88;;;19.90;99.90;;;;;;5071932;28;20056;-74
2022/10/17 10:03:24;;;;;;;5.80;3.47;;;20.10;99.90;;;;;;5072325;28;20021;-73
2022/10/17 10:06:14;;;;;;;4.15;3.05;;;20.10;99.90;;;;;;5072320;28;20047;-75
2022/10/17 10:08:54;;;;;;;4.72;3.22;;;20.20;99.90;;;;;;5071853;28;20488;-73
2022/10/17 10:11:43;;;;;;;4.07;3.00;;;20.30;99.90;;;;;;5067247;28;20035;-73
2022/10/17 10:14:20;;;;;;;5.32;2.78;;;20.30;99.90;;;;;;5056271;28;20033;-73
2022/10/17 10:16:48;;;;;;;3.55;3.00;;;20.40;99.90;;;;;;5058831;28;20040;-73
2022/10/17 10:19:32;;;;;;;4.22;2.70;;;20.50;99.90;;;;;;5071276;28;20411;-73
2022/10/17 10:21:59;;;;;;;7.85;3.67;;;20.60;99.90;;;;;;5070533;28;20024;-73
2022/10/17 10:24:26;;;;;;;4.20;3.10;;;20.70;99.90;;;;;;5070391;28;20498;-73
2022/10/17 10:26:58;;;;;;;5.18;3.67;;;20.80;99.70;;;;;;5070456;28;20482;-73
2022/10/17 10:29:32;;;;;;;6.88;3.38;;;20.90;99.70;;;;;;5070131;28;20025;-74
2022/10/17 10:32:29;;;;;;;11.80;3.13;;;21.00;99.50;;;;;;5070824;28;20051;-74
2022/10/17 10:35:26;;;;;;;4.95;3.15;;;21.10;99.50;;;;;;5053728;28;20159;-72
2022/10/17 10:37:55;;;;;;;4.68;3.72;;;21.20;99.40;;;;;;5051010;28;20063;-75
2022/10/17 10:40:31;;;;;;;4.10;2.83;;;21.30;99.10;;;;;;5071021;28;20468;-73
2022/10/17 10:42:59;;;;;;;5.30;2.88;;;21.40;99.00;;;;;;5070798;28;20052;-73
2022/10/17 10:45:27;;;;;;;6.53;2.78;;;21.40;98.70;;;;;;5069599;28;20043;-73
2022/10/17 10:47:59;;;;;;;5.63;3.00;;;21.50;98.70;;;;;;5070743;28;20357;-73
2022/10/17 10:50:25;;;;;;;4.60;3.00;;;21.60;98.60;;;;;;5070343;28;20046;-73
2022/10/17 10:53:24;;;;;;;4.43;3.25;;;21.60;98.30;;;;;;5069476;28;20048;-73
2022/10/17 10:55:58;;;;;;;4.72;2.83;;;21.70;98.30;;;;;;5070729;28;20024;-73
2022/10/17 10:58:33;;;;;;;5.80;2.58;;;21.80;98.00;;;;;;5070145;28;20454;-73
2022/10/17 11:01:04;;;;;;;9.15;3.72;;;21.80;97.90;;;;;;5070236;28;20025;-74
2022/10/17 11:03:39;;;;;;;7.00;3.00;;;21.90;97.90;;;;;;5071227;28;20897;-74
2022/10/17 11:06:15;;;;;;;6.00;3.28;;;21.90;97.60;;;;;;5072497;28;20383;-74
2022/10/17 11:08:49;;;;;;;4.05;2.72;;;22.00;97.50;;;;;;5091163;28;20437;-73
2022/10/17 11:11:22;;;;;;;4.72;3.30;;;22.10;97.30;;;;;;5071253;28;20468;-74
2022/10/17 11:14:10;;;;;;;3.83;2.55;;;22.10;97.20;;;;;;5051326;28;20407;-73
2022/10/17 11:16:48;;;;;;;4.75;2.33;;;22.10;97.10;;;;;;5067329;28;20552;-74
2022/10/17 11:19:24;;;;;;;4.18;2.72;;;22.20;97.00;;;;;;5074542;28;20418;-73
2022/10/17 11:22:20;;;;;;;5.95;2.92;;;22.30;96.80;;;;;;5070136;28;20411;-73
2022/10/17 11:25:09;;;;;;;5.07;2.97;;;22.40;96.70;;;;;;5077849;28;20478;-73
2022/10/17 11:27:34;;;;;;;4.57;2.33;;;22.50;96.70;;;;;;5064764;28;20036;-73
2022/10/17 11:30:02;;;;;;;3.97;2.70;;;22.50;96.60;;;;;;5070456;28;20496;-73
2022/10/17 11:32:35;;;;;;;7.38;2.92;;;22.50;96.10;;;;;;5069049;28;20045;-74
2022/10/17 11:35:30;;;;;;;4.35;2.40;;;22.60;95.90;;;;;;5055657;28;20029;-73
2022/10/17 11:38:29;;;;;;;5.25;2.85;;;22.60;96.00;;;;;;5062887;28;20072;-74
2022/10/17 11:40:58;;;;;;;8.27;2.78;;;22.70;95.90;;;;;;5074495;28;20069;-73
2022/10/17 11:43:26;;;;;;;5.57;2.58;;;22.80;95.70;;;;;;5089280;28;20032;-74
2022/10/17 11:46:00;;;;;;;4.25;2.90;;;22.90;95.80;;;;;;5068905;28;20365;-74
2022/10/17 11:48:49;;;;;;;6.33;2.73;;;22.90;95.70;;;;;;5071997;28;20116;-74
2022/10/17 11:51:15;;;;;;;8.13;3.22;;;22.90;95.70;;;;;;5088070;28;20498;-73
2022/10/17 11:54:12;;;;;;;4.85;2.83;;;23.00;95.60;;;;;;5075061;28;20037;-73
2022/10/17 11:56:38;;;;;;;7.10;3.20;;;23.00;95.50;;;;;;5081093;28;20533;-74
2022/10/17 11:59:41;;;;;;;8.20;3.00;;;23.10;95.40;;;;;;5079832;28;20040;-74
2022/10/17 12:02:15;;;;;;;4.72;3.05;;;23.10;95.40;;;;;;5075783;28;20529;-73
2022/10/17 12:04:55;;;;;;;3.92;2.83;;;23.20;95.20;;;;;;5072452;28;20037;-74
2022/10/17 12:07:44;;;;;;;6.07;2.78;;;23.20;95.00;;;;;;5076309;28;20027;-73
2022/10/17 12:10:47;;;;;;;5.30;3.20;;;23.30;95.10;;;;;;5072125;28;20033;-73
2022/10/17 12:13:32;;;;;;;4.95;3.15;;;23.40;95.10;;;;;;5072472;28;20028;-73
2022/10/17 12:16:18;;;;;;;;;;;23.40;95.00;;;;;;5071464;28;20028;-74
2022/10/17 12:18:45;;;;;;;6.82;3.08;;;23.40;95.50;;;;;;5080086;28;19917;-73
2022/10/17 12:21:11;;;;;;;8.02;3.40;;;23.50;94.90;;;;;;5073001;28;20037;-73
2022/10/17 12:23:40;;;;;;;6.43;2.97;;;23.50;94.70;;;;;;5084962;28;20028;-73
2022/10/17 12:26:09;;;;;;;7.80;3.65;;;23.60;94.60;;;;;;5075534;28;20070;-74
2022/10/17 12:28:43;;;;;;;3.47;2.60;;;23.60;94.50;;;;;;5072055;28;20028;-74
2022/10/17 12:31:22;;;;;;;5.28;3.00;;;23.70;94.50;;;;;;5082168;28;20065;-73
2022/10/17 12:33:49;;;;;;;5.57;3.92;;;23.70;94.30;;;;;;5083639;28;20051;-73
2022/10/17 12:36:20;;;;;;;5.70;3.30;;;23.80;94.20;;;;;;5074751;28;20556;-74
2022/10/17 12:38:51;;;;;;;5.85;3.22;;;23.80;93.90;;;;;;5075304;28;20507;-73
2022/10/17 12:41:39;;;;;;;12.13;4.30;;;23.80;94.00;;;;;;5073970;28;20039;-73
2022/10/17 12:44:14;;;;;;;8.48;3.42;;;23.80;94.00;;;;;;5063863;28;20033;-72
2022/10/17 12:47:04;;;;;;;9.15;3.92;;;23.80;93.80;;;;;;5072643;28;20024;-73
2022/10/17 12:49:36;;;;;;;7.85;3.03;;;23.90;93.80;;;;;;5073366;28;20043;-73
2022/10/17 12:52:25;;;;;;;7.22;3.35;;;23.90;93.60;;;;;;5084084;28;20368;-73
2022/10/17 12:54:51;;;;;;;5.22;3.35;;;24.00;93.70;;;;;;5080240;28;20033;-73
2022/10/17 12:57:38;;;;;;;4.50;3.10;;;23.90;93.50;;;;;;5089215;28;20036;-74
2022/10/17 13:00:25;;;;;;;8.93;3.22;;;24.00;93.50;;;;;;5068356;28;20044;-74
2022/10/17 13:03:00;;;;;;;4.60;2.85;;;24.00;93.30;;;;;;5080544;28;20028;-73
2022/10/17 13:05:30;;;;;;;;;;;24.10;93.20;;;;;;5080732;28;20103;-72
2022/10/17 13:08:01;;;;;;;5.05;2.78;;;24.10;93.80;;;;;;5072737;28;19920;-73
2022/10/17 13:10:29;;;;;;;6.78;3.58;;;24.10;93.20;;;;;;5077053;28;20032;-73
2022/10/17 13:13:19;;;;;;;6.63;3.30;;;24.10;93.10;;;;;;5067191;28;20498;-76